Time;durP1;ratioP1;P1;durP2;ratioP2;P2;SDS_P1;SDS_P2;PMS_P1;PMS_P2;Temp;Humidity;BMP_temperature;BMP_pressure;BME280_temperature;BME280_humidity;BME280_pressure;Samples;Min_cycle;Max_cycle;Signal;HPM_P1;HPM_P2
2022/04/25 00:01:49;;;;;;;0.97;0.97;;;10.30;99.90;9.80;100792.00;;;;5090817;28;20268;-69
2022/04/25 00:04:18;;;;;;;0.77;0.77;;;10.30;99.90;9.50;100802.00;;;;5073843;28;20182;-68
2022/04/25 00:06:43;;;;;;;0.30;0.30;;;10.30;99.90;10.30;100797.00;;;;5090100;28;20264;-68
2022/04/25 00:09:09;;;;;;;1.30;0.90;;;10.40;99.90;9.40;100786.00;;;;5091333;28;20228;-69
2022/04/25 00:11:35;;;;;;;0.87;0.87;;;10.30;99.90;9.70;100793.00;;;;5090235;28;20197;-69
2022/04/25 00:14:01;;;;;;;1.03;1.00;;;10.30;99.90;9.40;100802.00;;;;5070157;28;20277;-69
2022/04/25 00:16:27;;;;;;;0.60;0.60;;;10.20;99.90;9.60;100794.00;;;;5055224;28;20178;-69
2022/04/25 00:18:53;;;;;;;0.87;0.83;;;10.20;99.90;9.50;100740.00;;;;5087745;28;20227;-69
2022/04/25 00:21:19;;;;;;;12.53;3.70;;;10.20;99.90;9.70;100797.00;;;;5054532;28;20194;-69
2022/04/25 00:23:44;;;;;;;1.73;1.63;;;10.20;99.90;9.50;100785.00;;;;5070784;28;20540;-69
2022/04/25 00:26:10;;;;;;;0.40;0.40;;;10.20;99.90;9.80;100803.00;;;;5070796;28;20182;-68
2022/04/25 00:28:36;;;;;;;0.50;0.50;;;10.20;99.90;9.70;100764.00;;;;5070817;28;20174;-69
2022/04/25 00:31:02;;;;;;;0.50;0.50;;;10.20;99.90;9.70;100794.00;;;;5054734;28;20210;-68
2022/04/25 00:33:32;;;;;;;4.20;0.90;;;10.20;99.90;10.20;100794.00;;;;5070627;28;20172;-68
2022/04/25 00:36:00;;;;;;;3.80;1.63;;;10.40;99.90;10.10;100781.00;;;;5053267;28;20629;-68
2022/04/25 00:38:26;;;;;;;0.40;0.40;;;10.40;99.90;9.80;100797.00;;;;5069955;28;20159;-68
2022/04/25 00:40:52;;;;;;;0.40;0.40;;;10.40;99.90;9.90;100785.00;;;;5054890;28;20201;-68
2022/04/25 00:43:18;;;;;;;0.50;0.50;;;10.30;99.90;9.80;100792.00;;;;5070433;28;20186;-68
2022/04/25 00:45:44;;;;;;;0.50;0.47;;;10.30;99.90;10.00;100752.00;;;;5069182;28;20183;-68
2022/04/25 00:48:10;;;;;;;0.70;0.70;;;10.30;99.90;9.80;100792.00;;;;5078999;28;20326;-68
2022/04/25 00:50:38;;;;;;;1.47;1.37;;;10.20;99.90;9.70;100788.00;;;;5074091;28;20507;-68
2022/04/25 00:53:06;;;;;;;0.40;0.40;;;10.20;99.90;9.90;100762.00;;;;5072115;28;20295;-68
2022/04/25 00:55:38;;;;;;;0.53;0.50;;;10.20;99.90;9.40;100786.00;;;;5068533;28;20209;-68
2022/04/25 00:58:04;;;;;;;0.73;0.73;;;10.00;99.90;9.30;100793.00;;;;5068812;28;20606;-68
2022/04/25 01:00:32;;;;;;;0.50;0.50;;;9.90;99.90;9.50;100787.00;;;;5068873;28;20271;-68
2022/04/25 01:03:00;;;;;;;0.30;0.30;;;9.90;99.90;9.90;100766.00;;;;5069527;28;20696;-68
2022/04/25 01:05:26;;;;;;;0.50;0.50;;;10.00;99.90;9.10;100778.00;;;;5052740;28;20646;-68
2022/04/25 01:07:52;;;;;;;0.87;0.80;;;9.90;99.90;9.60;100759.00;;;;5053263;28;20182;-68
2022/04/25 01:10:18;;;;;;;0.40;0.40;;;9.90;99.90;9.50;100783.00;;;;5070047;28;20635;-68
2022/04/25 01:12:44;;;;;;;0.50;0.50;;;9.90;99.90;9.70;100784.00;;;;5054239;28;20206;-68
2022/04/25 01:15:12;;;;;;;0.63;0.63;;;10.00;99.90;9.90;100790.00;;;;5069853;28;20174;-68
2022/04/25 01:17:41;;;;;;;0.50;0.50;;;10.10;99.90;8.90;100779.00;;;;5073095;28;20264;-68
2022/04/25 01:20:09;;;;;;;0.50;0.50;;;9.90;99.90;9.30;100775.00;;;;5089937;28;20174;-68
2022/04/25 01:22:39;;;;;;;0.60;0.60;;;9.80;99.90;9.10;100748.00;;;;5088813;28;20189;-68
2022/04/25 01:27:50;;;;;;;1.10;1.10;;;9.60;99.90;9.10;100771.00;;;;5086696;28;20238;-68
2022/04/25 01:30:16;;;;;;;1.17;1.17;;;9.60;99.90;9.10;100773.00;;;;5072715;28;20180;-68
2022/04/25 01:32:42;;;;;;;0.53;0.53;;;9.50;99.90;8.90;100770.00;;;;5073822;28;20213;-68
2022/04/25 01:35:08;;;;;;;1.23;0.93;;;9.50;99.90;9.30;100776.00;;;;5089505;28;20199;-67
2022/04/25 01:37:34;;;;;;;1.20;1.17;;;9.60;99.90;8.90;100775.00;;;;5089446;28;20178;-68
2022/04/25 01:40:07;;;;;;;1.23;0.80;;;9.60;99.90;9.00;100744.00;;;;5088434;28;20184;-68
2022/04/25 01:42:33;;;;;;;1.17;1.07;;;9.60;99.90;9.30;100775.00;;;;5089022;28;20184;-68
2022/04/25 01:45:01;;;;;;;0.63;0.63;;;9.70;99.90;8.90;100777.00;;;;5073620;28;20621;-68
2022/04/25 01:47:27;;;;;;;1.47;1.37;;;9.60;99.90;8.90;100791.00;;;;5071869;28;20176;-68
2022/04/25 01:49:53;;;;;;;0.40;0.40;;;9.50;99.90;8.80;100775.00;;;;5072860;28;20187;-68
2022/04/25 01:52:31;;;;;;;0.60;0.60;;;9.50;99.90;8.60;100760.00;;;;5072674;28;20211;-67
2022/04/25 01:54:58;;;;;;;1.33;0.93;;;9.30;99.90;8.90;100782.00;;;;5071928;28;20247;-68
2022/04/25 01:57:28;;;;;;;0.50;0.50;;;9.40;99.90;9.40;100784.00;;;;5086879;28;20173;-68
2022/04/25 01:59:54;;;;;;;0.83;0.83;;;9.60;99.90;9.10;100790.00;;;;5086966;28;20174;-68
2022/04/25 02:02:24;;;;;;;0.50;0.50;;;9.60;99.90;8.80;100790.00;;;;5088222;28;20206;-68
2022/04/25 02:04:51;;;;;;;0.90;0.90;;;9.50;99.90;9.20;100782.00;;;;5087866;28;20185;-68
2022/04/25 02:07:19;;;;;;;0.73;0.73;;;9.60;99.90;9.30;100748.00;;;;5086684;28;20174;-68
2022/04/25 02:09:45;;;;;;;0.70;0.70;;;9.60;99.90;8.80;100787.00;;;;5088675;28;20177;-68
2022/04/25 02:12:14;;;;;;;0.73;0.73;;;9.50;99.90;9.20;100782.00;;;;5071071;28;20207;-68
2022/04/25 02:14:43;;;;;;;0.70;0.70;;;9.60;99.90;9.00;100775.00;;;;5088623;28;20217;-67
2022/04/25 02:17:09;;;;;;;0.50;0.50;;;9.50;99.90;9.20;100780.00;;;;5088395;28;20176;-67
2022/04/25 02:19:40;;;;;;;0.50;0.50;;;9.50;99.90;8.80;100784.00;;;;5071359;28;20226;-67
2022/04/25 02:22:08;;;;;;;0.93;0.93;;;9.40;99.90;8.80;100784.00;;;;5087775;28;20188;-68
2022/04/25 02:24:34;;;;;;;0.90;0.90;;;9.40;99.90;9.40;100744.00;;;;5088473;28;20180;-68
2022/04/25 02:27:03;;;;;;;0.60;0.60;;;9.50;99.90;9.00;100792.00;;;;5087758;28;20184;-68
2022/04/25 02:29:34;;;;;;;1.27;1.17;;;9.60;99.90;8.90;100794.00;;;;5088313;28;20173;-68
2022/04/25 02:32:00;;;;;;;0.50;0.50;;;9.40;99.90;9.20;100756.00;;;;5070902;28;20228;-67
2022/04/25 02:34:31;;;;;;;0.50;0.50;;;9.50;99.90;9.20;100787.00;;;;5073280;28;20212;-68
2022/04/25 02:36:57;;;;;;;1.57;1.17;;;9.50;99.90;9.40;100791.00;;;;5072646;28;20180;-68
2022/04/25 02:39:26;;;;;;;1.10;1.07;;;9.60;99.90;9.00;100789.00;;;;5088500;28;20180;-67
2022/04/25 02:41:54;;;;;;;0.90;0.90;;;9.50;99.90;9.10;100774.00;;;;5070476;28;20279;-68
2022/04/25 02:44:24;;;;;;;2.00;1.90;;;9.50;99.90;9.10;100780.00;;;;5087180;28;20208;-68
2022/04/25 02:46:50;;;;;;;3.37;1.70;;;9.50;99.90;9.30;100790.00;;;;5087977;28;20269;-68
2022/04/25 02:49:15;;;;;;;0.47;0.47;;;9.60;99.90;9.30;100792.00;;;;5073016;28;20222;-68
2022/04/25 02:51:42;;;;;;;0.40;0.40;;;9.60;99.90;8.80;100788.00;;;;5071748;28;20280;-68
2022/04/25 02:54:07;;;;;;;1.07;1.07;;;9.50;99.90;9.40;100792.00;;;;5087287;28;20192;-67
2022/04/25 02:56:33;;;;;;;0.40;0.40;;;9.50;99.90;9.50;100797.00;;;;5087525;28;20178;-67
2022/04/25 02:58:59;;;;;;;0.50;0.50;;;9.70;99.90;9.00;100780.00;;;;5088436;28;20181;-67
2022/04/25 03:01:27;;;;;;;0.50;0.50;;;9.60;99.90;9.00;100794.00;;;;5073033;28;20198;-67
2022/04/25 03:03:53;;;;;;;0.70;0.70;;;9.40;99.90;9.00;100786.00;;;;5087974;28;20181;-67
2022/04/25 03:06:18;;;;;;;0.80;0.80;;;9.50;99.90;9.40;100794.00;;;;5071200;28;20554;-67
2022/04/25 03:08:44;;;;;;;0.50;0.50;;;9.60;99.90;9.30;100782.00;;;;5072657;28;20170;-67
2022/04/25 03:11:10;;;;;;;0.60;0.60;;;9.60;99.90;9.40;100793.00;;;;5072956;28;20680;-67
2022/04/25 03:13:38;;;;;;;1.60;1.57;;;9.60;99.90;9.20;100796.00;;;;5088060;28;20173;-67
2022/04/25 03:16:06;;;;;;;0.60;0.60;;;9.60;99.90;8.90;100791.00;;;;5087391;28;20172;-67
2022/04/25 03:18:34;;;;;;;0.50;0.50;;;9.40;99.90;9.10;100786.00;;;;5088520;28;20180;-67
2022/04/25 03:21:00;;;;;;;0.60;0.60;;;9.50;99.90;8.90;100792.00;;;;5091010;28;20633;-67
2022/04/25 03:23:26;;;;;;;0.50;0.50;;;9.40;99.90;9.00;100799.00;;;;5089935;28;20243;-67
2022/04/25 03:25:52;;;;;;;1.90;1.80;;;9.40;99.90;9.20;100792.00;;;;5091132;28;20193;-67
2022/04/25 03:28:19;;;;;;;0.67;0.67;;;9.40;99.90;8.70;100798.00;;;;5074174;28;20192;-67
2022/04/25 03:30:45;;;;;;;0.40;0.40;;;9.30;99.90;9.00;100792.00;;;;5089570;28;20652;-67
2022/04/25 03:33:11;;;;;;;0.67;0.67;;;9.40;99.90;9.20;100789.00;;;;5090872;28;20239;-66
2022/04/25 03:35:42;;;;;;;1.00;1.00;;;9.50;99.90;9.30;100783.00;;;;5091090;28;20177;-66
2022/04/25 03:38:08;;;;;;;1.00;1.00;;;9.70;99.90;9.30;100789.00;;;;5075821;28;20182;-66
2022/04/25 03:40:36;;;;;;;0.50;0.50;;;9.50;99.90;8.90;100791.00;;;;5076367;28;20173;-66
2022/04/25 03:43:09;;;;;;;0.47;0.47;;;9.40;99.90;9.00;100797.00;;;;5075235;28;20280;-66
2022/04/25 03:45:39;;;;;;;0.97;0.97;;;9.40;99.90;9.20;100792.00;;;;5075658;28;20181;-65
2022/04/25 03:48:05;;;;;;;0.50;0.50;;;9.40;99.90;9.10;100792.00;;;;5076015;28;20178;-65
2022/04/25 03:50:31;;;;;;;0.60;0.60;;;9.40;99.90;9.00;100797.00;;;;5090218;28;20180;-66
2022/04/25 03:52:57;;;;;;;2.13;2.10;;;9.40;99.90;9.20;100794.00;;;;5075760;28;20631;-67
2022/04/25 03:58:07;;;;;;;1.87;1.33;;;9.20;99.90;8.80;100783.00;;;;5089150;28;20742;-67
2022/04/25 04:00:35;;;;;;;0.50;0.50;;;9.20;99.90;9.20;100741.00;;;;5075518;28;20267;-66
2022/04/25 04:03:01;;;;;;;0.50;0.50;;;9.30;99.90;9.00;100796.00;;;;5075791;28;20183;-67
2022/04/25 04:05:28;;;;;;;0.73;0.73;;;9.30;99.90;9.10;100805.00;;;;5075518;28;20210;-67
2022/04/25 04:07:54;;;;;;;1.73;1.63;;;9.40;99.90;9.20;100758.00;;;;5090584;28;20183;-67
2022/04/25 04:10:20;;;;;;;1.00;1.00;;;9.40;99.90;9.10;100801.00;;;;5091201;28;20176;-66
2022/04/25 04:12:47;;;;;;;2.10;1.47;;;9.40;99.90;9.30;100794.00;;;;5075765;28;20195;-67
2022/04/25 04:15:16;;;;;;;0.67;0.57;;;9.40;99.90;9.10;100773.00;;;;5091379;28;20554;-66
2022/04/25 04:17:42;;;;;;;0.47;0.47;;;9.40;99.90;9.20;100797.00;;;;5090315;28;20510;-67
2022/04/25 04:20:11;;;;;;;2.30;2.10;;;9.50;99.90;9.30;100798.00;;;;5074427;28;20170;-67
2022/04/25 04:22:39;;;;;;;1.77;1.67;;;9.50;99.90;9.30;100800.00;;;;5090513;28;20215;-67
2022/04/25 04:25:12;;;;;;;0.40;0.40;;;9.60;99.90;9.00;100795.00;;;;5090620;28;20180;-67
2022/04/25 04:27:41;;;;;;;0.70;0.70;;;9.60;99.90;8.90;100802.00;;;;5090488;28;20199;-67
2022/04/25 04:30:13;;;;;;;1.53;1.47;;;9.50;99.90;9.20;100793.00;;;;5069038;28;20689;-67
2022/04/25 04:32:40;;;;;;;0.40;0.40;;;9.40;99.90;9.40;100802.00;;;;5053580;28;20221;-67
2022/04/25 04:35:12;;;;;;;0.90;0.90;;;9.60;99.90;9.00;100795.00;;;;5070419;28;20210;-67
2022/04/25 04:37:40;;;;;;;0.40;0.40;;;9.40;99.90;8.90;100804.00;;;;5052466;28;20663;-67
2022/04/25 04:40:28;;;;;;;2.10;2.00;;;9.40;99.90;8.90;100794.00;;;;5053764;28;20189;-67
2022/04/25 04:42:55;;;;;;;2.47;1.73;;;9.40;99.90;9.30;100784.00;;;;5054223;28;20262;-67
2022/04/25 04:45:21;;;;;;;0.50;0.50;;;9.50;99.90;9.50;100805.00;;;;5052818;28;20178;-67
2022/04/25 04:47:47;;;;;;;0.80;0.80;;;9.70;99.90;9.70;100792.00;;;;5053884;28;20186;-67
2022/04/25 04:50:15;;;;;;;2.77;1.50;;;9.70;99.90;9.80;100803.00;;;;5053275;28;20180;-68
2022/04/25 04:52:46;;;;;;;0.40;0.40;;;9.90;99.90;9.40;100807.00;;;;5052262;28;20206;-68
2022/04/25 04:55:13;;;;;;;0.80;0.80;;;9.80;99.90;9.50;100813.00;;;;5054084;28;20515;-67
2022/04/25 04:57:42;;;;;;;2.20;2.10;;;9.80;99.90;9.80;100785.00;;;;5035867;28;20189;-68
2022/04/25 05:00:13;;;;;;;1.00;1.00;;;9.90;99.90;9.80;100789.00;;;;5052706;28;20616;-67
2022/04/25 05:02:40;;;;;;;2.40;1.73;;;10.00;99.90;9.80;100815.00;;;;5054767;28;20201;-66
2022/04/25 05:05:06;;;;;;;2.20;2.10;;;10.00;99.90;9.80;100814.00;;;;5053389;28;20182;-66
2022/04/25 05:07:32;;;;;;;2.93;1.23;;;10.00;99.90;10.00;100810.00;;;;5053109;28;20238;-66
2022/04/25 05:09:58;;;;;;;1.50;1.43;;;10.10;99.90;9.50;100826.00;;;;5053448;28;20178;-66
2022/04/25 05:12:27;;;;;;;0.40;0.40;;;10.10;99.90;9.80;100812.00;;;;5054441;28;20217;-66
2022/04/25 05:14:54;;;;;;;1.07;1.07;;;10.10;99.90;10.60;100824.00;;;;5052165;28;20178;-67
2022/04/25 05:17:19;;;;;;;1.10;1.00;;;10.50;99.90;11.00;100820.00;;;;5054338;28;20182;-67
2022/04/25 05:19:45;;;;;;;0.53;0.53;;;11.10;99.90;11.60;100817.00;;;;5052755;28;20175;-67
2022/04/25 05:22:11;;;;;;;0.87;0.87;;;11.50;99.90;12.20;100820.00;;;;5054009;28;20184;-67
2022/04/25 05:24:41;;;;;;;4.27;2.30;;;12.00;99.90;12.40;100810.00;;;;5053811;28;20179;-67
2022/04/25 05:27:07;;;;;;;0.97;0.90;;;12.30;99.90;12.30;100806.00;;;;5053681;28;20193;-67
2022/04/25 05:29:33;;;;;;;0.70;0.70;;;12.50;99.90;12.40;100803.00;;;;5051749;28;20207;-67
2022/04/25 05:31:59;;;;;;;0.20;0.20;;;12.70;99.90;12.00;100807.00;;;;5052612;28;20310;-68
2022/04/25 05:34:25;;;;;;;0.90;0.90;;;12.50;99.90;13.00;100803.00;;;;5054014;28;20527;-67
2022/04/25 05:36:51;;;;;;;0.30;0.30;;;12.90;99.90;13.90;100786.00;;;;5053180;28;20179;-68
2022/04/25 05:39:17;;;;;;;0.60;0.60;;;13.60;99.90;14.90;100853.00;;;;5052907;28;20213;-69
2022/04/25 05:41:45;;;;;;;1.87;1.13;;;14.50;99.90;13.80;100807.00;;;;5051523;28;20238;-68
2022/04/25 05:44:11;;;;;;;4.80;2.57;;;14.20;99.90;14.90;100870.00;;;;5052777;28;20173;-68
2022/04/25 05:46:37;;;;;;;0.77;0.77;;;14.60;99.90;14.10;100854.00;;;;5052524;28;20235;-68
2022/04/25 05:51:59;;;;;;;2.70;1.90;;;14.60;99.90;15.70;100905.00;;;;5044040;28;20574;-67
2022/04/25 05:54:27;;;;;;;1.40;1.30;;;15.20;99.90;14.60;100916.00;;;;5052132;28;20184;-67
2022/04/25 05:56:55;;;;;;;0.47;0.47;;;15.10;99.90;14.70;100865.00;;;;5051474;28;20189;-67
2022/04/25 05:59:21;;;;;;;2.60;0.40;;;14.60;99.90;13.10;100891.00;;;;5052329;28;20201;-67
2022/04/25 06:01:47;;;;;;;0.80;0.80;;;13.70;99.90;12.50;100862.00;;;;5052073;28;20711;-67
2022/04/25 06:04:13;;;;;;;0.40;0.40;;;13.00;99.90;11.90;100837.00;;;;5051971;28;20276;-67
2022/04/25 06:06:39;;;;;;;0.77;0.77;;;12.50;99.90;11.70;100806.00;;;;5050655;28;20580;-68
2022/04/25 06:09:05;;;;;;;0.73;0.73;;;12.20;99.90;11.50;100846.00;;;;5052926;28;20233;-67
2022/04/25 06:11:32;;;;;;;0.40;0.40;;;12.00;99.90;11.70;100837.00;;;;5053352;28;20233;-67
2022/04/25 06:13:58;;;;;;;0.40;0.40;;;12.00;99.90;11.00;100835.00;;;;5053529;28;20169;-66
2022/04/25 06:16:24;;;;;;;0.83;0.83;;;11.80;99.90;10.30;100797.00;;;;5052080;28;20196;-67
2022/04/25 06:18:50;;;;;;;1.90;1.80;;;11.40;99.90;10.60;100844.00;;;;5052774;28;20699;-67
2022/04/25 06:21:15;;;;;;;0.83;0.73;;;11.20;99.90;10.50;100848.00;;;;5052290;28;20166;-67
2022/04/25 06:23:41;;;;;;;0.40;0.40;;;11.20;99.90;11.20;100860.00;;;;5052230;28;20182;-67
2022/04/25 06:26:07;;;;;;;1.23;1.17;;;11.40;99.90;11.00;100825.00;;;;5052988;28;20192;-67
2022/04/25 06:28:36;;;;;;;1.70;1.23;;;11.40;99.90;11.00;100853.00;;;;5051501;28;20185;-67
2022/04/25 06:31:02;;;;;;;0.63;0.63;;;11.30;99.90;11.20;100816.00;;;;5052771;28;20184;-68
2022/04/25 06:33:28;;;;;;;1.80;1.70;;;11.40;99.90;11.20;100807.00;;;;5052733;28;20180;-68
2022/04/25 06:35:54;;;;;;;1.37;1.37;;;11.40;99.90;11.00;100858.00;;;;5052498;28;20575;-65
2022/04/25 06:38:21;;;;;;;0.40;0.40;;;11.40;99.90;11.10;100860.00;;;;5052353;28;20173;-67
2022/04/25 06:40:49;;;;;;;2.40;1.80;;;11.50;99.90;11.30;100860.00;;;;5052265;28;20290;-67
2022/04/25 06:43:15;;;;;;;0.80;0.80;;;11.60;99.90;11.50;100815.00;;;;5035260;28;20286;-67
2022/04/25 06:45:41;;;;;;;1.53;1.43;;;11.70;99.90;12.20;100877.00;;;;5050977;28;20229;-67
2022/04/25 06:48:13;;;;;;;1.00;1.00;;;12.10;99.90;11.60;100866.00;;;;5051421;28;20209;-67
2022/04/25 06:50:41;;;;;;;0.70;0.70;;;12.00;99.90;12.00;100862.00;;;;5051515;28;20185;-67
2022/04/25 06:53:15;;;;;;;2.77;2.57;;;12.20;99.90;12.00;100863.00;;;;5052520;28;20201;-68
2022/04/25 06:55:46;;;;;;;0.50;0.50;;;12.20;99.90;11.20;100866.00;;;;5056469;28;20174;-68
2022/04/25 06:58:12;;;;;;;0.40;0.40;;;12.00;99.90;11.70;100870.00;;;;5038498;28;20210;-68
2022/04/25 07:00:48;;;;;;;0.50;0.50;;;12.00;99.90;12.20;100826.00;;;;5055243;28;20255;-68
2022/04/25 07:03:14;;;;;;;1.60;1.60;;;12.40;99.90;11.60;100857.00;;;;5055530;28;20198;-68
2022/04/25 07:05:43;;;;;;;0.47;0.47;;;12.40;99.90;11.30;100867.00;;;;5055870;28;20186;-68
2022/04/25 07:08:09;;;;;;;0.40;0.40;;;12.20;99.90;11.90;100872.00;;;;5055500;28;20178;-68
2022/04/25 07:10:35;;;;;;;2.50;2.30;;;12.30;99.90;12.10;100872.00;;;;5055484;28;20661;-68
2022/04/25 07:13:01;;;;;;;3.57;3.27;;;12.40;99.90;12.00;100874.00;;;;5057793;28;20216;-68
2022/04/25 07:15:29;;;;;;;0.70;0.70;;;12.50;99.90;12.10;100877.00;;;;5076809;28;20181;-68
2022/04/25 07:17:56;;;;;;;0.60;0.60;;;12.50;99.90;11.60;100871.00;;;;5091948;28;20182;-68
2022/04/25 07:20:28;;;;;;;2.10;1.57;;;12.30;99.90;11.60;100874.00;;;;5092160;28;20259;-68
2022/04/25 07:28:58;;;;;;;1.33;1.23;;;12.10;99.90;12.00;100875.00;;;;5089320;28;20173;-68
2022/04/25 07:31:24;;;;;;;0.90;0.90;;;12.20;99.90;11.90;100873.00;;;;5082750;28;20305;-68
2022/04/25 07:33:59;;;;;;;2.20;2.03;;;12.30;99.90;11.90;100883.00;;;;5055104;28;20182;-68
2022/04/25 07:36:25;;;;;;;0.30;0.30;;;12.20;99.90;11.80;100881.00;;;;5071684;28;20200;-68
2022/04/25 07:38:51;;;;;;;1.50;1.40;;;12.20;99.90;11.10;100881.00;;;;5061000;28;20194;-68
2022/04/25 07:41:19;;;;;;;1.10;1.10;;;12.00;99.90;10.60;100880.00;;;;5063001;28;20187;-68
2022/04/25 07:43:45;;;;;;;0.30;0.30;;;11.60;99.90;10.80;100878.00;;;;5075070;28;20180;-68
2022/04/25 07:46:20;;;;;;;0.70;0.70;;;11.50;99.90;11.50;100870.00;;;;5091431;28;20193;-67
2022/04/25 07:48:46;;;;;;;0.30;0.30;;;11.70;99.90;11.30;100879.00;;;;5082777;28;20644;-67
2022/04/25 07:51:14;;;;;;;0.83;0.67;;;11.80;99.90;12.00;100882.00;;;;5054814;28;20176;-67
2022/04/25 07:53:48;;;;;;;0.30;0.30;;;12.40;99.90;12.50;100878.00;;;;5055849;28;20183;-67
2022/04/25 07:56:14;;;;;;;0.30;0.30;;;12.70;99.90;12.90;100877.00;;;;5071118;28;20242;-67
2022/04/25 07:58:39;;;;;;;0.73;0.73;;;13.20;99.90;14.10;100912.00;;;;5053836;28;20192;-65
2022/04/25 08:01:06;;;;;;;3.30;2.10;;;13.80;99.90;12.50;100902.00;;;;5054457;28;20190;-65
2022/04/25 08:03:35;;;;;;;0.80;0.80;;;13.60;99.90;12.80;100890.00;;;;5055382;28;20234;-65
2022/04/25 08:06:04;;;;;;;1.80;1.03;;;13.30;99.90;12.30;100890.00;;;;5054692;28;20172;-64
2022/04/25 08:08:33;;;;;;;0.50;0.50;;;13.10;99.90;12.90;100894.00;;;;5054064;28;20187;-63
2022/04/25 08:10:59;;;;;;;0.50;0.50;;;13.20;99.90;12.70;100900.00;;;;5054661;28;20184;-74
2022/04/25 08:18:57;;;;;;;0.20;0.20;;;13.90;99.90;13.30;100912.00;;;;5053481;28;20212;-74
2022/04/25 08:21:27;;;;;;;0.40;0.40;;;13.70;99.90;14.10;100922.00;;;;5055268;28;20165;-75
2022/04/25 08:23:56;;;;;;;0.70;0.70;;;13.90;99.90;14.10;100943.00;;;;5054317;28;20187;-75
2022/04/25 08:26:26;;;;;;;1.43;1.43;;;14.10;99.90;14.50;100962.00;;;;5053427;28;20193;-75
2022/04/25 08:28:54;;;;;;;0.57;0.57;;;14.70;99.90;14.20;100948.00;;;;5053979;28;20261;-75
2022/04/25 08:31:25;;;;;;;0.67;0.67;;;14.50;99.90;16.40;100977.00;;;;5053908;28;20653;-75
2022/04/25 08:33:57;;;;;;;1.00;1.00;;;15.70;99.90;18.10;101008.00;;;;5054193;28;20268;-75
2022/04/25 08:36:23;;;;;;;2.47;2.27;;;17.10;99.90;15.80;101020.00;;;;5054068;28;20229;-69
2022/04/25 08:38:51;;;;;;;2.20;2.00;;;16.70;99.90;15.10;100969.00;;;;5053715;28;20234;-69
2022/04/25 08:41:25;;;;;;;1.87;1.70;;;15.90;99.90;14.30;101008.00;;;;5052622;28;20180;-69
2022/04/25 08:43:55;;;;;;;0.57;0.57;;;15.50;99.90;14.40;101001.00;;;;5053858;28;20206;-69
2022/04/25 08:46:28;;;;;;;1.17;1.17;;;15.00;99.90;15.20;100986.00;;;;5053033;28;20203;-70
2022/04/25 08:49:00;;;;;;;0.70;0.70;;;15.20;99.90;15.00;101011.00;;;;5053411;28;20168;-70
2022/04/25 08:51:28;;;;;;;2.33;2.13;;;15.20;99.90;13.80;101009.00;;;;5053936;28;20252;-70
2022/04/25 08:53:56;;;;;;;0.20;0.20;;;14.70;99.90;13.60;100957.00;;;;5052920;28;20216;-70
2022/04/25 08:56:25;;;;;;;4.27;3.50;;;14.20;99.90;12.90;100950.00;;;;5052916;28;20563;-78
2022/04/25 08:58:56;;;;;;;5.70;2.00;;;13.70;99.90;12.60;100954.00;;;;5053414;28;20207;-68
2022/04/25 09:01:22;;;;;;;2.63;2.43;;;13.40;99.90;12.40;100942.00;;;;5054495;28;20189;-68
2022/04/25 09:03:48;;;;;;;2.20;2.10;;;13.10;99.90;11.70;100914.00;;;;5053448;28;20183;-64
2022/04/25 09:06:16;;;;;;;5.77;3.43;;;12.60;99.90;11.50;100934.00;;;;5053260;28;20180;-68
2022/04/25 09:08:43;;;;;;;0.93;0.93;;;12.40;99.90;11.80;100933.00;;;;5052567;28;20178;-68
2022/04/25 09:13:54;;;;;;;3.47;2.67;;;12.10;99.90;11.60;100904.00;;;;5054487;28;20186;-68
2022/04/25 09:16:23;;;;;;;1.90;1.80;;;12.30;99.90;11.60;100947.00;;;;5052356;28;20170;-69
2022/04/25 09:18:51;;;;;;;2.20;0.97;;;12.30;99.90;12.00;100954.00;;;;5052227;28;20626;-69
2022/04/25 09:21:17;;;;;;;2.30;1.87;;;12.30;99.90;12.00;100947.00;;;;5053889;28;20181;-69
2022/04/25 09:23:49;;;;;;;2.63;2.43;;;12.40;99.90;11.50;100907.00;;;;5053726;28;20178;-70
2022/04/25 09:26:27;;;;;;;3.13;1.50;;;12.10;99.90;11.20;100911.00;;;;5052635;28;20533;-70
2022/04/25 09:28:56;;;;;;;7.43;5.73;;;12.00;99.90;10.90;100965.00;;;;5051954;28;20179;-70
2022/04/25 09:31:25;;;;;;;5.37;3.27;;;11.90;99.90;10.50;100951.00;;;;5051622;28;20204;-69
2022/04/25 09:33:54;;;;;;;1.57;0.70;;;11.50;99.90;11.10;100968.00;;;;5052661;28;20184;-69
2022/04/25 09:36:21;;;;;;;2.10;1.80;;;11.60;99.90;10.90;100966.00;;;;5051964;28;20523;-70
2022/04/25 09:38:47;;;;;;;1.63;1.53;;;11.70;99.90;11.90;100971.00;;;;5052208;28;20170;-67
2022/04/25 09:41:15;;;;;;;2.80;2.33;;;12.10;99.90;11.00;100970.00;;;;5052382;28;20201;-73
2022/04/25 09:43:44;;;;;;;0.50;0.50;;;11.90;99.90;11.10;100961.00;;;;5052608;28;20189;-72
2022/04/25 09:46:17;;;;;;;0.60;0.60;;;11.80;99.90;11.70;100950.00;;;;5052635;28;20182;-71
2022/04/25 09:49:09;;;;;;;4.00;1.60;;;12.00;99.90;11.40;100968.00;;;;5053407;28;20205;-71
2022/04/25 09:52:02;;;;;;;0.40;0.40;;;12.00;99.90;11.40;100961.00;;;;5052006;28;20444;-71
2022/04/25 09:54:28;;;;;;;0.20;0.20;;;12.00;99.90;12.10;100973.00;;;;5052250;28;20433;-72
2022/04/25 09:56:57;;;;;;;0.60;0.60;;;12.30;99.90;12.80;100975.00;;;;5052175;28;20171;-71
2022/04/25 09:59:23;;;;;;;1.30;1.03;;;12.70;99.90;13.90;100949.00;;;;5052284;28;20211;-72
2022/04/25 10:02:06;;;;;;;2.63;2.53;;;13.40;99.90;14.70;101006.00;;;;5052412;28;20237;-73
2022/04/25 10:04:38;;;;;;;1.03;1.03;;;14.10;99.90;15.00;100980.00;;;;5052500;28;21004;-72
2022/04/25 10:07:11;;;;;;;2.20;2.10;;;14.60;99.90;15.30;101030.00;;;;5052456;28;20630;-71
2022/04/25 10:09:44;;;;;;;0.87;0.87;;;14.90;99.90;15.70;101035.00;;;;5068546;28;20225;-73
2022/04/25 10:12:13;;;;;;;1.33;1.33;;;15.30;99.90;15.30;101047.00;;;;5052367;28;20579;-71
2022/04/25 10:14:46;;;;;;;0.30;0.30;;;15.20;99.90;15.40;101051.00;;;;5052044;28;20183;-71
2022/04/25 10:17:16;;;;;;;0.23;0.23;;;15.20;99.90;15.10;101058.00;;;;5051756;28;20208;-71
2022/04/25 10:19:47;;;;;;;3.50;0.77;;;15.00;99.90;14.60;101052.00;;;;5069061;28;20202;-71
2022/04/25 10:33:20;;;;;;;0.30;0.30;;;13.40;99.90;12.60;100975.00;;;;5089625;27;20540;-67
2022/04/25 10:35:50;;;;;;;1.10;1.07;;;13.20;99.90;13.10;100984.00;;;;5068552;28;20663;-65
2022/04/25 10:38:49;;;;;;;1.20;1.17;;;13.30;99.90;13.20;100961.00;;;;5069099;28;20178;-66
2022/04/25 10:44:17;;;;;;;0.70;0.70;;;13.40;99.90;12.40;100989.00;;;;5070720;28;20588;-66
2022/04/25 10:47:05;;;;;;;1.23;1.13;;;13.10;99.90;13.00;101015.00;;;;5069648;28;20529;-66
2022/04/25 10:49:42;;;;;;;0.47;0.30;;;13.40;99.90;13.50;101025.00;;;;5068803;28;20273;-72
2022/04/25 10:52:34;;;;;;;0.50;0.50;;;13.60;99.90;13.90;101000.00;;;;5067707;28;20209;-71
2022/04/25 10:55:23;;;;;;;0.20;0.20;;;13.90;99.90;14.20;101051.00;;;;5064194;28;20295;-70
2022/04/25 10:58:04;;;;;;;1.60;1.50;;;14.00;99.90;13.50;101056.00;;;;5063804;28;20236;-68
2022/04/25 11:00:36;;;;;;;1.17;0.97;;;13.90;99.90;14.10;101054.00;;;;5064883;28;20219;-68
2022/04/25 11:03:06;;;;;;;0.50;0.50;;;13.90;99.90;14.20;101064.00;;;;5069900;28;20191;-68
2022/04/25 11:05:38;;;;;;;0.60;0.60;;;14.10;99.90;14.90;101069.00;;;;5070054;28;20655;-68
2022/04/25 11:08:19;;;;;;;2.87;1.17;;;14.40;99.90;13.60;101070.00;;;;5068404;28;20178;-68
2022/04/25 11:10:56;;;;;;;0.67;0.67;;;14.20;99.90;13.60;101061.00;;;;5069920;28;20639;-68
2022/04/25 11:13:24;;;;;;;1.10;0.83;;;14.10;99.90;14.40;101059.00;;;;5069677;28;20328;-67
2022/04/25 11:15:56;;;;;;;2.27;2.10;;;14.30;99.90;15.20;101077.00;;;;5051983;28;20205;-67
2022/04/25 11:18:34;;;;;;;0.37;0.37;;;14.90;99.90;15.00;101091.00;;;;5069082;28;20239;-67
2022/04/25 11:21:14;;;;;;;1.43;1.33;;;15.00;99.90;15.10;101061.00;;;;5059801;28;20192;-67
2022/04/25 11:23:43;;;;;;;5.47;4.30;;;15.10;99.90;14.50;101094.00;;;;5069339;28;20180;-68
2022/04/25 11:26:36;;;;;;;4.27;3.10;;;15.00;99.90;14.60;101085.00;;;;5076990;28;20200;-68
2022/04/25 11:29:11;;;;;;;0.20;0.20;;;14.90;99.90;14.10;101082.00;;;;5066977;28;20221;-67
2022/04/25 11:31:38;;;;;;;2.03;1.93;;;14.40;99.90;14.10;101104.00;;;;5065916;28;20214;-67
2022/04/25 11:34:07;;;;;;;0.93;0.93;;;14.30;99.90;14.20;101115.00;;;;5068320;28;20643;-67
2022/04/25 11:36:46;;;;;;;1.57;1.50;;;14.30;99.90;13.90;101111.00;;;;5067539;28;20182;-68